createdAt,value
2018-06-28T00:01:41.085Z,17.05
2018-06-28T00:04:09.648Z,17.09
2018-06-28T00:06:38.229Z,17.21
2018-06-28T00:09:08.751Z,17.17
2018-06-28T00:11:37.601Z,16.76
2018-06-28T00:14:06.492Z,17.06
2018-06-28T00:16:35.950Z,16.92
2018-06-28T00:19:05.078Z,17.08
2018-06-28T00:21:33.716Z,17.44
2018-06-28T00:24:02.602Z,17.75
2018-06-28T00:26:31.544Z,17.72
2018-06-28T00:29:00.438Z,17.32
2018-06-28T00:31:29.044Z,17.17
2018-06-28T00:33:57.897Z,17.02
2018-06-28T00:36:26.492Z,17.14
2018-06-28T00:38:55.388Z,17.28
2018-06-28T00:41:23.896Z,17.00
2018-06-28T00:43:52.454Z,16.93
2018-06-28T00:46:20.971Z,16.94
2018-06-28T00:48:49.558Z,16.82
2018-06-28T00:51:18.116Z,17.04
2018-06-28T00:53:46.643Z,16.91
2018-06-28T00:56:15.620Z,16.83
2018-06-28T00:58:44.498Z,16.76
2018-06-28T01:01:14.598Z,16.72
2018-06-28T01:03:43.633Z,16.67
2018-06-28T01:06:12.475Z,16.61
2018-06-28T01:08:41.400Z,16.50
2018-06-28T01:11:10.363Z,16.45
2018-06-28T01:13:39.265Z,16.43
2018-06-28T01:16:08.176Z,16.41
2018-06-28T01:18:37.067Z,16.63
2018-06-28T01:21:05.996Z,16.57
2018-06-28T01:23:34.905Z,16.65
2018-06-28T01:26:03.766Z,16.74
2018-06-28T01:28:32.636Z,16.58
2018-06-28T01:31:01.536Z,16.54
2018-06-28T01:33:30.416Z,16.72
2018-06-28T01:35:59.263Z,16.65
2018-06-28T01:38:28.126Z,16.58
2018-06-28T01:40:56.791Z,16.51
2018-06-28T01:43:41.460Z,16.49
2018-06-28T01:46:10.309Z,16.40
2018-06-28T01:48:38.926Z,16.38
2018-06-28T01:51:07.636Z,16.38
2018-06-28T01:53:36.191Z,16.38
2018-06-28T01:56:04.957Z,16.57
2018-06-28T01:58:33.535Z,16.51
2018-06-28T02:01:02.214Z,16.48
2018-06-28T02:03:30.790Z,16.41
2018-06-28T02:05:59.366Z,16.20
2018-06-28T02:08:27.880Z,16.06
2018-06-28T02:10:56.629Z,16.13
2018-06-28T02:13:25.488Z,16.02
2018-06-28T02:15:54.098Z,15.89
2018-06-28T02:18:22.972Z,15.76
2018-06-28T02:20:51.608Z,15.67
2018-06-28T02:23:20.139Z,15.56
2018-06-28T02:25:48.695Z,15.49
2018-06-28T02:28:17.238Z,15.48
2018-06-28T02:30:46.009Z,15.58
2018-06-28T02:33:14.873Z,15.44
2018-06-28T02:35:43.491Z,15.37
2018-06-28T02:38:12.348Z,15.45
2018-06-28T02:40:40.843Z,15.32
2018-06-28T02:43:09.402Z,15.26
2018-06-28T02:45:37.954Z,15.29
2018-06-28T02:48:06.475Z,15.22
2018-06-28T02:50:35.258Z,15.11
2018-06-28T02:53:03.884Z,15.09
2018-06-28T02:55:32.767Z,15.07
2018-06-28T02:58:01.631Z,14.99
2018-06-28T03:00:30.269Z,15.05
2018-06-28T03:02:58.843Z,14.96
2018-06-28T03:05:27.436Z,14.84
2018-06-28T03:07:55.949Z,14.73
2018-06-28T03:10:24.414Z,14.58
2018-06-28T03:12:53.303Z,14.65
2018-06-28T03:15:22.293Z,14.72
2018-06-28T03:17:51.204Z,14.72
2018-06-28T03:20:20.124Z,14.86
2018-06-28T03:22:49.003Z,15.05
2018-06-28T03:25:17.950Z,15.65
2018-06-28T03:27:46.916Z,15.44
2018-06-28T03:30:15.783Z,15.19
2018-06-28T03:32:44.729Z,15.14
2018-06-28T03:35:13.601Z,15.36
2018-06-28T03:37:42.590Z,15.11
2018-06-28T03:40:11.259Z,14.84
2018-06-28T03:42:39.811Z,14.66
2018-06-28T03:45:08.409Z,14.55
2018-06-28T03:47:36.943Z,14.45
2018-06-28T03:50:05.609Z,14.46
2018-06-28T03:52:34.179Z,14.38
2018-06-28T03:55:02.796Z,14.38
2018-06-28T03:57:31.527Z,14.56
2018-06-28T04:00:00.263Z,14.47
2018-06-28T04:02:29.254Z,14.44
2018-06-28T04:04:58.124Z,14.48
2018-06-28T04:07:26.978Z,14.68
2018-06-28T04:09:55.826Z,14.92
2018-06-28T04:12:24.664Z,15.01
2018-06-28T04:14:53.561Z,15.13
2018-06-28T04:17:22.416Z,15.28
2018-06-28T04:19:50.990Z,15.80
2018-06-28T04:22:24.989Z,15.74
2018-06-28T04:24:53.849Z,15.46
2018-06-28T04:27:22.811Z,15.32
2018-06-28T04:29:51.376Z,15.44
2018-06-28T04:32:19.988Z,15.45
2018-06-28T04:34:48.516Z,15.72
2018-06-28T04:37:17.084Z,16.02
2018-06-28T04:39:45.827Z,16.17
2018-06-28T04:42:14.768Z,16.21
2018-06-28T04:44:43.616Z,16.76
2018-06-28T04:47:12.446Z,17.33
2018-06-28T04:49:41.321Z,17.62
2018-06-28T04:52:10.168Z,17.69
2018-06-28T04:54:39.006Z,18.22
2018-06-28T04:57:08.019Z,18.16
2018-06-28T04:59:36.936Z,18.13
2018-06-28T05:02:05.663Z,18.49
2018-06-28T05:04:34.725Z,18.63
2018-06-28T05:07:03.758Z,18.77
2018-06-28T05:09:32.611Z,18.92
2018-06-28T05:12:01.522Z,19.30
2018-06-28T05:14:30.633Z,19.29
2018-06-28T05:16:59.516Z,19.74
2018-06-28T05:19:28.448Z,19.73
2018-06-28T05:21:57.474Z,19.74
2018-06-28T05:24:26.534Z,19.61
2018-06-28T05:26:55.450Z,19.84
2018-06-28T05:29:24.112Z,20.08
2018-06-28T05:31:53.216Z,20.31
2018-06-28T05:34:21.783Z,20.25
2018-06-28T05:36:50.383Z,20.14
2018-06-28T05:39:18.957Z,20.48
2018-06-28T05:41:47.559Z,20.21
2018-06-28T05:44:16.108Z,20.49
2018-06-28T05:46:44.654Z,20.54
2018-06-28T05:49:13.518Z,20.94
2018-06-28T05:51:42.447Z,21.52
2018-06-28T05:54:11.390Z,21.30
2018-06-28T05:56:40.271Z,21.48
2018-06-28T05:59:08.948Z,21.69
2018-06-28T06:01:37.417Z,22.35
2018-06-28T06:04:06.044Z,22.76
2018-06-28T06:06:34.671Z,23.05
2018-06-28T06:09:03.956Z,23.05
2018-06-28T06:11:32.544Z,23.09
2018-06-28T06:14:01.219Z,23.78
2018-06-28T06:16:29.798Z,23.59
2018-06-28T06:18:58.602Z,23.56
2018-06-28T06:21:27.571Z,24.04
2018-06-28T06:23:56.410Z,24.44
2018-06-28T06:26:25.312Z,24.65
2018-06-28T06:28:53.844Z,24.93
2018-06-28T06:31:22.468Z,24.91
2018-06-28T06:33:51.068Z,25.11
2018-06-28T06:36:19.701Z,25.64
2018-06-28T06:38:48.256Z,25.94
2018-06-28T06:41:16.849Z,26.49
2018-06-28T06:43:45.423Z,26.17
2018-06-28T06:46:14.004Z,26.36
2018-06-28T06:48:42.801Z,26.60
2018-06-28T06:51:11.269Z,26.94
2018-06-28T06:53:39.859Z,26.74
2018-06-28T06:56:08.516Z,26.81
2018-06-28T06:58:37.476Z,27.01
2018-06-28T07:01:06.451Z,26.84
2018-06-28T07:03:35.386Z,27.18
2018-06-28T07:06:04.561Z,27.17
2018-06-28T07:08:33.076Z,27.08
2018-06-28T07:11:01.641Z,27.12
2018-06-28T07:13:30.238Z,27.03
2018-06-28T07:15:59.057Z,27.73
2018-06-28T07:18:27.963Z,27.84
2018-06-28T07:20:56.841Z,27.74
2018-06-28T07:23:25.444Z,27.76
2018-06-28T07:25:54.246Z,27.72
2018-06-28T07:28:22.823Z,27.97
2018-06-28T07:30:51.512Z,27.95
2018-06-28T07:33:20.296Z,28.28
2018-06-28T07:35:49.183Z,27.75
2018-06-28T07:38:18.026Z,28.32
2018-06-28T07:40:46.909Z,28.68
2018-06-28T07:43:15.769Z,28.47
2018-06-28T07:45:44.621Z,27.89
2018-06-28T07:48:13.494Z,28.30
2018-06-28T07:50:42.427Z,28.28
2018-06-28T07:53:11.507Z,27.78
2018-06-28T07:55:40.030Z,28.43
2018-06-28T07:58:08.401Z,27.90
2018-06-28T08:00:36.977Z,27.85
2018-06-28T08:03:05.592Z,27.45
2018-06-28T08:05:34.212Z,27.66
2018-06-28T08:08:02.827Z,28.21
2018-06-28T08:10:31.386Z,28.36
2018-06-28T08:12:59.941Z,28.58
2018-06-28T08:15:28.542Z,28.74
2018-06-28T08:17:57.116Z,28.87
2018-06-28T08:20:26.476Z,29.19
2018-06-28T08:22:55.048Z,29.02
2018-06-28T08:25:23.616Z,29.05
2018-06-28T08:27:52.191Z,28.88
2018-06-28T08:30:20.729Z,28.99
2018-06-28T08:32:49.516Z,29.00
2018-06-28T08:35:18.484Z,29.32
2018-06-28T08:37:47.448Z,29.38
2018-06-28T08:40:17.681Z,29.45
2018-06-28T08:42:46.599Z,29.77
2018-06-28T08:45:15.583Z,29.63
2018-06-28T08:47:44.465Z,29.78
2018-06-28T08:50:13.336Z,29.72
2018-06-28T08:52:42.019Z,29.51
2018-06-28T08:55:10.641Z,29.55
2018-06-28T08:57:39.351Z,30.22
2018-06-28T09:00:09.086Z,29.68
2018-06-28T09:02:37.968Z,30.48
2018-06-28T09:05:06.846Z,29.99
2018-06-28T09:07:36.076Z,30.07
2018-06-28T09:10:05.084Z,29.72
2018-06-28T09:12:33.824Z,29.78
2018-06-28T09:15:02.383Z,30.39
2018-06-28T09:17:30.968Z,30.13
2018-06-28T09:19:59.504Z,30.24
2018-06-28T09:22:28.198Z,30.30
2018-06-28T09:24:56.723Z,30.70
2018-06-28T09:27:25.281Z,30.99
2018-06-28T09:29:53.873Z,31.28
2018-06-28T09:32:22.669Z,31.31
2018-06-28T09:34:51.581Z,31.35
2018-06-28T09:37:20.477Z,31.66
2018-06-28T09:39:49.384Z,31.76
2018-06-28T09:42:18.089Z,31.25
2018-06-28T09:44:46.763Z,31.31
2018-06-28T09:47:15.378Z,30.93
2018-06-28T09:49:43.961Z,31.07
2018-06-28T09:52:12.809Z,30.90
2018-06-28T09:54:41.771Z,31.21
2018-06-28T09:57:10.644Z,30.97
2018-06-28T09:59:39.726Z,30.80
2018-06-28T10:02:08.441Z,30.90
2018-06-28T10:04:37.143Z,31.72
2018-06-28T10:07:06.374Z,31.71
2018-06-28T10:09:35.504Z,31.57
2018-06-28T10:12:04.381Z,31.51
2018-06-28T10:14:33.323Z,31.49
2018-06-28T10:17:02.312Z,31.23
2018-06-28T10:19:31.262Z,31.65
2018-06-28T10:22:00.114Z,31.87
2018-06-28T10:24:28.956Z,31.77
2018-06-28T10:26:58.703Z,31.35
2018-06-28T10:29:27.561Z,31.75
2018-06-28T10:31:56.369Z,31.75
2018-06-28T10:34:25.271Z,32.34
2018-06-28T10:36:54.151Z,32.60
2018-06-28T10:39:23.140Z,32.20
2018-06-28T10:41:52.182Z,32.36
2018-06-28T10:44:21.239Z,33.07
2018-06-28T10:46:50.229Z,33.19
2018-06-28T10:49:19.110Z,32.84
2018-06-28T10:51:48.045Z,32.29
2018-06-28T10:54:16.894Z,31.50
2018-06-28T10:56:46.421Z,31.39
2018-06-28T10:59:15.089Z,31.65
2018-06-28T11:01:43.647Z,32.00
2018-06-28T11:04:12.208Z,32.15
2018-06-28T11:06:40.893Z,32.14
2018-06-28T11:09:11.548Z,31.95
2018-06-28T11:11:40.798Z,31.45
2018-06-28T11:14:09.669Z,31.58
2018-06-28T11:16:38.713Z,31.93
2018-06-28T11:19:07.372Z,32.70
2018-06-28T11:21:35.962Z,32.89
2018-06-28T11:24:04.727Z,32.86
2018-06-28T11:26:33.347Z,32.95
2018-06-28T11:29:01.966Z,33.30
2018-06-28T11:31:30.532Z,33.16
2018-06-28T11:33:59.125Z,32.91
2018-06-28T11:36:27.709Z,33.31
2018-06-28T11:38:56.294Z,33.76
2018-06-28T11:41:24.891Z,33.67
2018-06-28T11:43:53.606Z,33.82
2018-06-28T11:46:22.192Z,34.27
2018-06-28T11:48:50.869Z,34.36
2018-06-28T11:51:19.639Z,34.22
2018-06-28T11:53:48.267Z,33.34
2018-06-28T11:56:17.028Z,33.02
2018-06-28T11:58:45.873Z,33.23
2018-06-28T12:01:14.853Z,33.55
2018-06-28T12:03:43.684Z,33.58
2018-06-28T12:06:12.347Z,33.87
2018-06-28T12:08:40.951Z,34.01
2018-06-28T12:11:09.886Z,32.68
2018-06-28T12:13:38.479Z,31.34
2018-06-28T12:16:07.116Z,30.61
2018-06-28T12:18:35.776Z,29.83
2018-06-28T12:21:04.367Z,29.31
2018-06-28T12:23:34.704Z,29.51
2018-06-28T12:26:03.442Z,30.96
2018-06-28T12:28:32.512Z,32.37
2018-06-28T12:31:01.585Z,33.28
2018-06-28T12:33:30.636Z,32.72
2018-06-28T12:35:59.561Z,33.20
2018-06-28T12:38:29.916Z,32.41
2018-06-28T12:40:58.534Z,32.47
2018-06-28T12:43:29.245Z,33.13
2018-06-28T12:45:59.042Z,32.29
2018-06-28T12:48:27.765Z,33.15
2018-06-28T12:50:56.321Z,33.86
2018-06-28T12:53:24.949Z,33.34
2018-06-28T12:56:29.871Z,33.80
2018-06-28T12:59:01.302Z,34.41
2018-06-28T13:01:30.556Z,35.01
2018-06-28T13:03:59.439Z,34.94
2018-06-28T13:06:28.378Z,33.59
2018-06-28T13:08:57.946Z,32.69
2018-06-28T13:11:27.176Z,32.63
2018-06-28T13:13:56.053Z,32.21
2018-06-28T13:16:26.973Z,31.92
2018-06-28T13:18:55.881Z,31.82
2018-06-28T13:21:24.707Z,31.58
2018-06-28T13:23:53.600Z,31.50
2018-06-28T13:26:22.588Z,32.72
2018-06-28T13:28:51.464Z,33.68
2018-06-28T13:31:20.404Z,34.73
2018-06-28T13:33:49.359Z,35.21
2018-06-28T13:36:18.157Z,34.83
2018-06-28T13:38:47.292Z,34.93
2018-06-28T13:41:16.382Z,34.65
2018-06-28T13:43:45.116Z,33.98
2018-06-28T13:46:14.032Z,33.06
2018-06-28T13:48:42.977Z,33.09
2018-06-28T13:51:12.784Z,33.59
2018-06-28T13:53:41.775Z,33.99
2018-06-28T13:56:10.847Z,34.36
2018-06-28T13:58:39.546Z,33.71
2018-06-28T14:01:08.244Z,33.24
2018-06-28T14:03:37.653Z,33.28
2018-06-28T14:06:06.995Z,32.93
2018-06-28T14:08:35.801Z,33.02
2018-06-28T14:11:04.721Z,33.44
2018-06-28T14:13:33.626Z,33.88
2018-06-28T14:16:02.514Z,33.51
2018-06-28T14:18:31.439Z,32.72
2018-06-28T14:21:00.423Z,32.24
2018-06-28T14:23:29.433Z,32.20
2018-06-28T14:25:58.364Z,32.77
2018-06-28T14:28:27.371Z,33.65
2018-06-28T14:30:55.962Z,34.17
2018-06-28T14:33:24.916Z,34.53
2018-06-28T14:35:53.748Z,34.92
2018-06-28T14:38:23.606Z,34.88
2018-06-28T14:40:52.511Z,33.86
2018-06-28T14:43:22.286Z,33.50
2018-06-28T14:45:51.184Z,32.95
2018-06-28T14:48:20.096Z,32.09
2018-06-28T14:50:48.974Z,31.48
2018-06-28T14:53:17.821Z,30.95
2018-06-28T14:55:46.778Z,30.85
2018-06-28T14:58:15.630Z,30.49
2018-06-28T15:00:44.304Z,30.64
2018-06-28T15:03:12.915Z,30.64
2018-06-28T15:05:41.512Z,30.61
2018-06-28T15:08:10.137Z,30.34
2018-06-28T15:10:38.876Z,30.13
2018-06-28T15:13:08.938Z,30.20
2018-06-28T15:15:37.484Z,30.22
2018-06-28T15:18:06.087Z,30.06
2018-06-28T15:20:34.859Z,29.86
2018-06-28T15:23:03.810Z,29.82
2018-06-28T15:25:32.845Z,29.54
2018-06-28T15:28:01.874Z,29.37
2018-06-28T15:30:31.534Z,29.30
2018-06-28T15:33:00.506Z,29.26
2018-06-28T15:35:29.037Z,29.17
2018-06-28T15:37:58.404Z,29.31
2018-06-28T15:40:27.084Z,29.49
2018-06-28T15:42:55.863Z,29.34
2018-06-28T15:45:24.864Z,29.03
2018-06-28T15:47:53.749Z,29.02
2018-06-28T15:50:22.636Z,28.85
2018-06-28T15:52:51.536Z,28.87
2018-06-28T15:55:20.366Z,28.78
2018-06-28T15:57:49.248Z,28.59
2018-06-28T16:00:18.142Z,28.38
2018-06-28T16:02:47.047Z,28.31
2018-06-28T16:05:15.941Z,28.09
2018-06-28T16:07:44.838Z,28.05
2018-06-28T16:10:13.703Z,27.97
2018-06-28T16:12:42.573Z,28.01
2018-06-28T16:15:11.443Z,28.03
2018-06-28T16:17:44.531Z,27.96
2018-06-28T16:20:13.607Z,27.91
2018-06-28T16:22:42.599Z,27.91
2018-06-28T16:25:11.504Z,27.86
2018-06-28T16:27:40.331Z,27.71
2018-06-28T16:30:09.207Z,27.74
2018-06-28T16:32:37.936Z,27.73
2018-06-28T16:35:06.556Z,27.72
2018-06-28T16:37:35.235Z,27.64
2018-06-28T16:40:03.941Z,27.63
2018-06-28T16:42:32.597Z,27.38
2018-06-28T16:45:01.230Z,27.38
2018-06-28T16:47:29.827Z,27.24
2018-06-28T16:49:58.445Z,27.21
2018-06-28T16:52:27.371Z,27.08
2018-06-28T16:54:56.296Z,27.10
2018-06-28T16:57:25.139Z,26.89
2018-06-28T16:59:54.124Z,26.95
2018-06-28T17:02:22.818Z,26.85
2018-06-28T17:04:51.414Z,26.81
2018-06-28T17:07:20.616Z,26.72
2018-06-28T17:09:49.481Z,26.61
2018-06-28T17:12:19.147Z,26.46
2018-06-28T17:14:48.049Z,26.37
2018-06-28T17:17:17.815Z,26.21
2018-06-28T17:19:46.695Z,26.12
2018-06-28T17:22:15.787Z,26.00
2018-06-28T17:24:45.624Z,26.06
2018-06-28T17:27:14.486Z,26.02
2018-06-28T17:29:43.388Z,25.86
2018-06-28T17:32:12.309Z,25.79
2018-06-28T17:34:41.419Z,25.68
2018-06-28T17:37:10.302Z,25.58
2018-06-28T17:39:39.152Z,25.54
2018-06-28T17:42:07.978Z,25.47
2018-06-28T17:44:36.815Z,25.42
2018-06-28T17:47:06.017Z,25.37
2018-06-28T17:49:35.071Z,25.31
2018-06-28T17:52:03.718Z,25.18
2018-06-28T17:54:32.314Z,25.12
2018-06-28T17:57:01.624Z,25.07
2018-06-28T17:59:30.249Z,24.98
2018-06-28T18:01:59.769Z,24.96
2018-06-28T18:04:28.699Z,24.84
2018-06-28T18:06:57.577Z,24.82
2018-06-28T18:09:26.632Z,24.77
2018-06-28T18:11:55.454Z,24.69
2018-06-28T18:14:24.354Z,24.63
2018-06-28T18:16:53.269Z,24.59
2018-06-28T18:19:22.233Z,24.53
2018-06-28T18:21:51.135Z,24.46
2018-06-28T18:24:19.935Z,24.49
2018-06-28T18:26:48.531Z,24.46
2018-06-28T18:29:17.099Z,24.41
2018-06-28T18:31:45.628Z,24.28
2018-06-28T18:34:14.184Z,24.18
2018-06-28T18:36:42.921Z,24.08
2018-06-28T18:39:11.810Z,24.05
2018-06-28T18:41:40.702Z,23.97
2018-06-28T18:44:09.702Z,23.88
2018-06-28T18:46:38.517Z,23.83
2018-06-28T18:49:07.416Z,23.82
2018-06-28T18:51:36.290Z,23.76
2018-06-28T18:54:05.223Z,23.77
2018-06-28T18:56:34.538Z,23.80
2018-06-28T18:59:03.463Z,23.69
2018-06-28T19:01:32.354Z,23.65
2018-06-28T19:04:02.048Z,23.55
2018-06-28T19:06:30.762Z,23.51
2018-06-28T19:08:59.391Z,23.47
2018-06-28T19:11:28.404Z,23.42
2018-06-28T19:14:02.710Z,23.40
2018-06-28T19:16:39.173Z,23.46
2018-06-28T19:19:07.921Z,23.44
2018-06-28T19:21:42.181Z,23.38
2018-06-28T19:24:11.758Z,23.30
2018-06-28T19:26:40.476Z,23.28
2018-06-28T19:29:16.152Z,23.27
2018-06-28T19:31:50.594Z,23.26
2018-06-28T19:34:19.356Z,23.21
2018-06-28T19:36:48.136Z,23.18
2018-06-28T19:39:22.624Z,23.22
2018-06-28T19:41:57.114Z,23.13
2018-06-28T19:44:26.119Z,23.05
2018-06-28T19:46:55.191Z,23.12
2018-06-28T19:49:29.287Z,23.00
2018-06-28T19:52:03.777Z,22.97
2018-06-28T19:54:33.756Z,22.97
2018-06-28T19:57:02.816Z,22.97
2018-06-28T19:59:36.326Z,22.90
2018-06-28T20:02:10.954Z,22.92
2018-06-28T20:04:45.360Z,22.83
2018-06-28T20:07:14.701Z,23.06
2018-06-28T20:09:43.731Z,23.04
2018-06-28T20:12:17.966Z,22.75
2018-06-28T20:14:52.027Z,22.58
2018-06-28T20:17:26.859Z,22.42
2018-06-28T20:20:02.776Z,22.40
2018-06-28T20:22:31.726Z,22.36
2018-06-28T20:25:01.336Z,22.37
2018-06-28T20:27:35.629Z,22.33
2018-06-28T20:30:11.148Z,22.19
2018-06-28T20:32:45.342Z,22.02
2018-06-28T20:35:14.669Z,21.88
2018-06-28T20:37:43.754Z,21.84
2018-06-28T20:40:13.002Z,21.83
2018-06-28T20:42:44.314Z,21.81
2018-06-28T20:45:13.528Z,21.83
2018-06-28T20:47:42.239Z,21.86
2018-06-28T20:50:10.917Z,21.88
2018-06-28T20:52:39.545Z,21.81
2018-06-28T20:55:08.184Z,21.73
2018-06-28T20:57:37.856Z,21.71
2018-06-28T21:00:08.444Z,21.69
2018-06-28T21:02:37.297Z,21.70
2018-06-28T21:05:05.979Z,21.73
2018-06-28T21:07:34.704Z,21.79
2018-06-28T21:10:04.569Z,21.85
2018-06-28T21:12:34.087Z,21.90
2018-06-28T21:15:03.102Z,21.89
2018-06-28T21:17:32.449Z,21.85
2018-06-28T21:20:01.232Z,21.80
2018-06-28T21:22:29.874Z,21.75
2018-06-28T21:24:58.494Z,21.82
2018-06-28T21:27:28.688Z,21.88
2018-06-28T21:29:59.011Z,21.89
2018-06-28T21:32:27.716Z,21.94
2018-06-28T21:34:56.451Z,22.00
2018-06-28T21:37:25.287Z,21.78
2018-06-28T21:39:54.547Z,21.60
2018-06-28T21:42:23.445Z,21.46
2018-06-28T21:44:52.446Z,21.31
2018-06-28T21:47:21.386Z,21.28
2018-06-28T21:49:50.339Z,21.33
2018-06-28T21:52:19.317Z,21.29
2018-06-28T21:54:48.252Z,21.11
2018-06-28T21:57:17.430Z,21.08
2018-06-28T21:59:46.436Z,20.98
2018-06-28T22:02:15.389Z,21.54
2018-06-28T22:04:44.354Z,21.35
2018-06-28T22:07:13.316Z,21.14
2018-06-28T22:09:42.434Z,21.01
2018-06-28T22:12:11.359Z,20.91
2018-06-28T22:14:40.291Z,20.81
2018-06-28T22:17:09.266Z,20.75
2018-06-28T22:19:38.298Z,20.71
2018-06-28T22:22:07.366Z,20.65
2018-06-28T22:24:36.296Z,20.83
2018-06-28T22:27:05.294Z,21.04
2018-06-28T22:29:35.215Z,20.78
2018-06-28T22:32:04.159Z,21.08
2018-06-28T22:34:33.056Z,21.01
2018-06-28T22:37:01.775Z,20.90
2018-06-28T22:39:30.336Z,20.84
2018-06-28T22:41:58.965Z,20.78
2018-06-28T22:44:27.536Z,20.63
2018-06-28T22:46:56.315Z,20.42
2018-06-28T22:49:25.805Z,20.36
2018-06-28T22:51:54.726Z,20.14
2018-06-28T22:54:23.588Z,19.93
2018-06-28T22:56:52.595Z,19.74
2018-06-28T22:59:21.169Z,19.61
2018-06-28T23:01:49.727Z,19.45
2018-06-28T23:04:18.258Z,19.38
2018-06-28T23:06:46.784Z,19.33
2018-06-28T23:09:15.336Z,19.23
2018-06-28T23:11:43.896Z,19.11
2018-06-28T23:14:12.444Z,19.51
2018-06-28T23:16:40.987Z,19.71
2018-06-28T23:19:09.602Z,19.66
2018-06-28T23:21:38.193Z,19.66
2018-06-28T23:24:06.816Z,19.61
2018-06-28T23:26:35.373Z,19.57
2018-06-28T23:29:04.046Z,19.59
2018-06-28T23:31:32.599Z,19.48
2018-06-28T23:34:01.727Z,19.22
2018-06-28T23:36:30.305Z,18.90
2018-06-28T23:38:58.854Z,18.78
2018-06-28T23:41:27.414Z,18.68
2018-06-28T23:43:55.969Z,18.61
2018-06-28T23:46:24.724Z,18.45
2018-06-28T23:48:53.293Z,18.35
2018-06-28T23:51:22.194Z,18.32
2018-06-28T23:53:51.111Z,18.29
2018-06-28T23:56:19.766Z,18.21
2018-06-28T23:58:48.344Z,18.09
